Aérodrome :
LOGIN :

S'inscrire | Disclaimer

   EN    FR    IT 

 










Légende :    VFR   VFR Marginal   IFR   IFR Intensif   IFR Très Intensif
Visi : 
Plafond : 
>= 8 km
>= 3000ft
5 à 8 km
1000 à 3000 ft
1500m à 5 km
500 à 1000 ft
800 à 1500m
200 à 500 ft
< 800m
< 200 ft
Symboles :   Orages  Brouillard  Fortes neiges  Fortes précipitations  Vent > 20 kt
SIGMETs :   Divers  Orages  Givrage  Turbulence  Onde Orograph.  Cendres Volcan.






- Altitude de l'aérodrome : 1411 ft
- Code IATA : SZG


LOWS - Salzburg

DERNIER METAR :
  • 221350Z 22008KT 9999 FEW011 BKN034 09/06 Q1020 RETSRA NOSIG

METARs EXPIRÉS :
  • 221320Z 23014KT 200V260 9999 TSRA FEW030 SCT034 FEW040CB BKN050 09/05 Q1019 TEMPO SHRA
  • 221250Z 15005KT 9999 FEW030 FEW040CB BKN042 10/06 Q1019 TEMPO SHRA
  • 221220Z VRB04KT 9999 -SHRA FEW018 SCT030 FEW040CB BKN050 09/07 Q1019 RETSRA TEMPO SHRA
  • 221150Z 35006KT 290V020 9999 TSRA FEW018 SCT035 FEW040CB BKN045 10/05 Q1019 TEMPO 4000 SHRA
  • 221120Z 26003KT 200V350 9999 4500NE TS VCSH FEW022 FEW040CB BKN045 12/06 Q1019 TEMPO 32012KT TSRA

TAF TAF LOWS
Valide du 22 à 12h jusqu'au 23 à 12h UTC


221115Z 2212/2312 32006KT 9999 SCT040 BKN070 TX13/2312Z TN02/2304Z
TEMPO 2212/2217 29012KT SHRA SCT030TCU BKN040
PROB30
TEMPO 2212/2215 4500 TSRA SCT025CB BKN035
BECMG 2218/2220 15006KT CAVOK
BECMG 2307/2309 34006KT 9999 FEW070



MET'MAP, la Météo Aéronautique d'un coup d'oeil ! - Copyright ORBIFLY Décembre 2007 - Disclaimer

ORBIFLY MET'MAP TEAM :

Programmation & Développement : Alexandra Zaïnal
Sur une idée originale de : Baudouin d'Aumeries
Assistance à la programmation : Marc-Olivier Méhu
Soutien technique & logistique : Manuel Goepfert

Contact : metmap@orbifly.com




SOURCES & CREDITS :

   NOAA